sensor_id;sensor_type;location;lat;lon;timestamp;pressure;altitude;pressure_sealevel;temperature;humidity
33506;BME280;19843;51.040;13.782;2023-10-08T00:00:35;100326.91;;;20.04;65.96
33506;BME280;19843;51.040;13.782;2023-10-08T00:03:09;100331.75;;;20.14;65.60
33506;BME280;19843;51.040;13.782;2023-10-08T00:05:37;100328.91;;;20.11;65.75
33506;BME280;19843;51.040;13.782;2023-10-08T00:08:05;100327.31;;;20.06;65.96
33506;BME280;19843;51.040;13.782;2023-10-08T00:10:36;100324.06;;;19.93;66.74
33506;BME280;19843;51.040;13.782;2023-10-08T00:13:06;100330.97;;;19.89;66.75
33506;BME280;19843;51.040;13.782;2023-10-08T00:15:37;100321.59;;;20.17;66.29
33506;BME280;19843;51.040;13.782;2023-10-08T00:18:08;100323.66;;;20.09;66.79
33506;BME280;19843;51.040;13.782;2023-10-08T00:20:38;100319.19;;;20.12;66.34
33506;BME280;19843;51.040;13.782;2023-10-08T00:23:20;100327.31;;;19.92;67.11
33506;BME280;19843;51.040;13.782;2023-10-08T00:25:48;100326.53;;;19.95;67.22
33506;BME280;19843;51.040;13.782;2023-10-08T00:28:16;100326.91;;;19.97;67.39
33506;BME280;19843;51.040;13.782;2023-10-08T00:30:46;100324.06;;;20.08;67.32
33506;BME280;19843;51.040;13.782;2023-10-08T00:33:14;100318.78;;;20.24;66.69
33506;BME280;19843;51.040;13.782;2023-10-08T00:35:43;100318.00;;;20.06;67.44
33506;BME280;19843;51.040;13.782;2023-10-08T00:38:11;100310.69;;;20.12;67.47
33506;BME280;19843;51.040;13.782;2023-10-08T00:40:43;100313.16;;;19.28;70.67
33506;BME280;19843;51.040;13.782;2023-10-08T00:43:29;100316.34;;;19.19;71.37
33506;BME280;19843;51.040;13.782;2023-10-08T00:46:00;100324.03;;;19.26;71.79
33506;BME280;19843;51.040;13.782;2023-10-08T00:48:28;100322.81;;;19.27;72.12
33506;BME280;19843;51.040;13.782;2023-10-08T00:51:02;100327.25;;;19.10;72.92
33506;BME280;19843;51.040;13.782;2023-10-08T00:53:42;100314.31;;;19.16;73.17
33506;BME280;19843;51.040;13.782;2023-10-08T00:56:10;100315.13;;;19.09;73.56
33506;BME280;19843;51.040;13.782;2023-10-08T00:58:41;100316.75;;;19.10;73.87
33506;BME280;19843;51.040;13.782;2023-10-08T01:01:14;100320.38;;;19.14;73.74
33506;BME280;19843;51.040;13.782;2023-10-08T01:03:43;100320.78;;;19.16;73.34
33506;BME280;19843;51.040;13.782;2023-10-08T01:06:11;100319.53;;;19.03;73.67
33506;BME280;19843;51.040;13.782;2023-10-08T01:08:41;100329.69;;;19.22;73.75
33506;BME280;19843;51.040;13.782;2023-10-08T01:11:18;100334.09;;;19.02;74.33
33506;BME280;19843;51.040;13.782;2023-10-08T01:13:48;100334.50;;;19.07;75.41
33506;BME280;19843;51.040;13.782;2023-10-08T01:16:17;100341.75;;;18.98;75.34
33506;BME280;19843;51.040;13.782;2023-10-08T01:18:45;100340.06;;;18.79;77.79
33506;BME280;19843;51.040;13.782;2023-10-08T01:21:17;100348.66;;;18.27;82.99
33506;BME280;19843;51.040;13.782;2023-10-08T01:24:02;100359.81;;;18.02;86.36
33506;BME280;19843;51.040;13.782;2023-10-08T01:26:32;100358.81;;;17.77;89.79
33506;BME280;19843;51.040;13.782;2023-10-08T01:29:00;100359.25;;;17.38;97.29
33506;BME280;19843;51.040;13.782;2023-10-08T01:31:33;100361.78;;;17.13;100.00
33506;BME280;19843;51.040;13.782;2023-10-08T01:34:03;100352.41;;;17.02;100.00
33506;BME280;19843;51.040;13.782;2023-10-08T01:36:30;100365.44;;;16.80;100.00
33506;BME280;19843;51.040;13.782;2023-10-08T01:38:58;100374.13;;;16.68;100.00
33506;BME280;19843;51.040;13.782;2023-10-08T01:41:29;100391.19;;;16.78;100.00
33506;BME280;19843;51.040;13.782;2023-10-08T01:43:57;100404.19;;;16.60;100.00
33506;BME280;19843;51.040;13.782;2023-10-08T01:46:25;100394.59;;;16.91;100.00
33506;BME280;19843;51.040;13.782;2023-10-08T01:48:54;100399.53;;;16.71;100.00
33506;BME280;19843;51.040;13.782;2023-10-08T01:51:30;100398.16;;;16.58;100.00
33506;BME280;19843;51.040;13.782;2023-10-08T01:54:06;100405.84;;;16.34;100.00
33506;BME280;19843;51.040;13.782;2023-10-08T01:56:40;100431.53;;;16.29;100.00
33506;BME280;19843;51.040;13.782;2023-10-08T01:59:09;100418.94;;;15.74;100.00
33506;BME280;19843;51.040;13.782;2023-10-08T02:01:38;100422.66;;;15.35;100.00
33506;BME280;19843;51.040;13.782;2023-10-08T02:04:06;100417.94;;;15.20;100.00
33506;BME280;19843;51.040;13.782;2023-10-08T02:06:35;100437.97;;;14.99;100.00
33506;BME280;19843;51.040;13.782;2023-10-08T02:09:03;100442.47;;;15.23;100.00
33506;BME280;19843;51.040;13.782;2023-10-08T02:11:46;100452.31;;;15.14;100.00
33506;BME280;19843;51.040;13.782;2023-10-08T02:14:16;100466.41;;;14.59;100.00
33506;BME280;19843;51.040;13.782;2023-10-08T02:16:45;100465.63;;;14.27;100.00
33506;BME280;19843;51.040;13.782;2023-10-08T02:19:13;100491.81;;;13.83;100.00
33506;BME280;19843;51.040;13.782;2023-10-08T02:21:44;100462.94;;;13.99;100.00
33506;BME280;19843;51.040;13.782;2023-10-08T02:24:13;100477.13;;;13.74;100.00
33506;BME280;19843;51.040;13.782;2023-10-08T02:26:41;100479.28;;;13.65;100.00
33506;BME280;19843;51.040;13.782;2023-10-08T02:29:11;100507.38;;;13.53;100.00
33506;BME280;19843;51.040;13.782;2023-10-08T02:31:40;100507.72;;;13.36;100.00
33506;BME280;19843;51.040;13.782;2023-10-08T02:34:08;100513.69;;;13.34;100.00
33506;BME280;19843;51.040;13.782;2023-10-08T02:36:35;100516.69;;;13.69;100.00
33506;BME280;19843;51.040;13.782;2023-10-08T02:39:04;100519.69;;;13.92;100.00
33506;BME280;19843;51.040;13.782;2023-10-08T02:41:40;100548.78;;;13.72;100.00
33506;BME280;19843;51.040;13.782;2023-10-08T02:44:08;100549.38;;;13.49;100.00
33506;BME280;19843;51.040;13.782;2023-10-08T02:46:40;100572.31;;;14.11;100.00
33506;BME280;19843;51.040;13.782;2023-10-08T02:49:09;100578.94;;;13.75;100.00
33506;BME280;19843;51.040;13.782;2023-10-08T02:51:39;100590.56;;;13.61;100.00
33506;BME280;19843;51.040;13.782;2023-10-08T02:54:08;100575.59;;;13.69;100.00
33506;BME280;19843;51.040;13.782;2023-10-08T02:56:44;100593.91;;;13.39;100.00
33506;BME280;19843;51.040;13.782;2023-10-08T02:59:13;100590.72;;;13.80;100.00
33506;BME280;19843;51.040;13.782;2023-10-08T03:01:42;100599.09;;;13.65;100.00
33506;BME280;19843;51.040;13.782;2023-10-08T03:04:10;100604.25;;;13.63;100.00
33506;BME280;19843;51.040;13.782;2023-10-08T03:06:45;100611.50;;;13.23;100.00
33506;BME280;19843;51.040;13.782;2023-10-08T03:09:16;100618.38;;;13.66;100.00
33506;BME280;19843;51.040;13.782;2023-10-08T03:11:47;100629.53;;;13.50;100.00
33506;BME280;19843;51.040;13.782;2023-10-08T03:14:16;100644.66;;;12.97;100.00
33506;BME280;19843;51.040;13.782;2023-10-08T03:16:51;100661.13;;;13.23;100.00
33506;BME280;19843;51.040;13.782;2023-10-08T03:19:21;100720.69;;;13.07;100.00
33506;BME280;19843;51.040;13.782;2023-10-08T03:21:50;100649.81;;;13.07;100.00
33506;BME280;19843;51.040;13.782;2023-10-08T03:24:23;100679.88;;;13.59;100.00
33506;BME280;19843;51.040;13.782;2023-10-08T03:27:05;100679.34;;;13.29;100.00
33506;BME280;19843;51.040;13.782;2023-10-08T03:29:33;100707.47;;;12.96;100.00
33506;BME280;19843;51.040;13.782;2023-10-08T03:32:08;100718.47;;;12.43;100.00
33506;BME280;19843;51.040;13.782;2023-10-08T03:34:45;100713.34;;;12.45;100.00
33506;BME280;19843;51.040;13.782;2023-10-08T03:37:14;100724.56;;;12.57;100.00
33506;BME280;19843;51.040;13.782;2023-10-08T03:39:47;100724.50;;;12.00;100.00
33506;BME280;19843;51.040;13.782;2023-10-08T03:42:33;100745.69;;;11.80;100.00
33506;BME280;19843;51.040;13.782;2023-10-08T03:45:07;100762.59;;;11.63;100.00
33506;BME280;19843;51.040;13.782;2023-10-08T03:47:40;100772.63;;;11.64;100.00
33506;BME280;19843;51.040;13.782;2023-10-08T03:50:13;100770.75;;;11.47;100.00
33506;BME280;19843;51.040;13.782;2023-10-08T03:52:44;100770.84;;;10.91;100.00
33506;BME280;19843;51.040;13.782;2023-10-08T03:55:13;100769.41;;;11.23;100.00
33506;BME280;19843;51.040;13.782;2023-10-08T03:57:48;100781.75;;;11.52;100.00
33506;BME280;19843;51.040;13.782;2023-10-08T04:00:23;100782.97;;;11.34;100.00
33506;BME280;19843;51.040;13.782;2023-10-08T04:02:59;100775.53;;;10.70;100.00
33506;BME280;19843;51.040;13.782;2023-10-08T04:05:34;100795.53;;;10.81;100.00
33506;BME280;19843;51.040;13.782;2023-10-08T04:08:16;100797.06;;;10.61;100.00
33506;BME280;19843;51.040;13.782;2023-10-08T04:10:52;100814.50;;;10.40;100.00
33506;BME280;19843;51.040;13.782;2023-10-08T04:13:38;100815.16;;;10.37;100.00
33506;BME280;19843;51.040;13.782;2023-10-08T04:16:13;100790.56;;;10.95;100.00
33506;BME280;19843;51.040;13.782;2023-10-08T04:18:47;100784.53;;;11.22;100.00
33506;BME280;19843;51.040;13.782;2023-10-08T04:21:18;100783.38;;;11.53;100.00
33506;BME280;19843;51.040;13.782;2023-10-08T04:23:47;100796.94;;;11.42;100.00
33506;BME280;19843;51.040;13.782;2023-10-08T04:26:20;100812.91;;;10.95;100.00
33506;BME280;19843;51.040;13.782;2023-10-08T04:28:51;100801.00;;;10.68;100.00
33506;BME280;19843;51.040;13.782;2023-10-08T04:31:21;100820.31;;;10.82;100.00
33506;BME280;19843;51.040;13.782;2023-10-08T04:33:52;100825.16;;;10.56;100.00
33506;BME280;19843;51.040;13.782;2023-10-08T04:36:20;100824.63;;;10.54;100.00
33506;BME280;19843;51.040;13.782;2023-10-08T04:38:48;100823.00;;;10.52;100.00
33506;BME280;19843;51.040;13.782;2023-10-08T04:41:21;100829.56;;;10.57;100.00
33506;BME280;19843;51.040;13.782;2023-10-08T04:43:54;100815.44;;;10.70;100.00
33506;BME280;19843;51.040;13.782;2023-10-08T04:46:22;100827.13;;;10.64;100.00
33506;BME280;19843;51.040;13.782;2023-10-08T04:49:15;100842.38;;;10.49;100.00
33506;BME280;19843;51.040;13.782;2023-10-08T04:51:55;100830.63;;;10.99;100.00
33506;BME280;19843;51.040;13.782;2023-10-08T04:54:25;100843.38;;;11.26;100.00
33506;BME280;19843;51.040;13.782;2023-10-08T04:56:57;100871.22;;;10.96;100.00
33506;BME280;19843;51.040;13.782;2023-10-08T04:59:26;100892.28;;;10.85;100.00
33506;BME280;19843;51.040;13.782;2023-10-08T05:01:59;100903.63;;;10.89;100.00
33506;BME280;19843;51.040;13.782;2023-10-08T05:04:47;100904.47;;;10.55;100.00
33506;BME280;19843;51.040;13.782;2023-10-08T05:07:23;100890.09;;;11.08;100.00
33506;BME280;19843;51.040;13.782;2023-10-08T05:10:09;100899.66;;;10.90;100.00
33506;BME280;19843;51.040;13.782;2023-10-08T05:12:58;100909.34;;;11.01;100.00
33506;BME280;19843;51.040;13.782;2023-10-08T05:15:41;100923.00;;;10.76;100.00
33506;BME280;19843;51.040;13.782;2023-10-08T05:18:16;100910.19;;;11.01;100.00
33506;BME280;19843;51.040;13.782;2023-10-08T05:20:51;100918.69;;;11.22;100.00
33506;BME280;19843;51.040;13.782;2023-10-08T05:23:41;100919.31;;;11.28;100.00
33506;BME280;19843;51.040;13.782;2023-10-08T05:26:38;100923.09;;;11.23;100.00
33506;BME280;19843;51.040;13.782;2023-10-08T05:29:11;100919.13;;;11.42;100.00
33506;BME280;19843;51.040;13.782;2023-10-08T05:32:18;100923.34;;;11.57;100.00
33506;BME280;19843;51.040;13.782;2023-10-08T05:35:05;100936.25;;;11.23;100.00
33506;BME280;19843;51.040;13.782;2023-10-08T05:37:52;100936.66;;;10.61;100.00
33506;BME280;19843;51.040;13.782;2023-10-08T05:40:39;100937.25;;;11.18;100.00
33506;BME280;19843;51.040;13.782;2023-10-08T05:43:27;100952.59;;;10.60;100.00
33506;BME280;19843;51.040;13.782;2023-10-08T05:46:15;100937.81;;;10.68;100.00
33506;BME280;19843;51.040;13.782;2023-10-08T05:49:07;100954.06;;;10.58;100.00
33506;BME280;19843;51.040;13.782;2023-10-08T05:52:05;100965.22;;;10.40;100.00
33506;BME280;19843;51.040;13.782;2023-10-08T05:54:53;100982.47;;;10.77;100.00
33506;BME280;19843;51.040;13.782;2023-10-08T05:57:38;100987.53;;;10.49;100.00
33506;BME280;19843;51.040;13.782;2023-10-08T06:00:07;101001.06;;;10.99;100.00
33506;BME280;19843;51.040;13.782;2023-10-08T06:02:56;100991.31;;;10.53;100.00
33506;BME280;19843;51.040;13.782;2023-10-08T06:05:38;100986.28;;;10.07;100.00
33506;BME280;19843;51.040;13.782;2023-10-08T06:08:14;100999.13;;;10.16;100.00
33506;BME280;19843;51.040;13.782;2023-10-08T06:10:48;101011.19;;;10.51;100.00
33506;BME280;19843;51.040;13.782;2023-10-08T06:13:27;101015.44;;;10.00;100.00
33506;BME280;19843;51.040;13.782;2023-10-08T06:15:57;101014.66;;;10.09;100.00
33506;BME280;19843;51.040;13.782;2023-10-08T06:18:34;100996.94;;;10.70;100.00
33506;BME280;19843;51.040;13.782;2023-10-08T06:21:02;101003.03;;;10.98;100.00
33506;BME280;19843;51.040;13.782;2023-10-08T06:23:35;101016.66;;;10.91;100.00
33506;BME280;19843;51.040;13.782;2023-10-08T06:26:05;101021.28;;;11.22;100.00
33506;BME280;19843;51.040;13.782;2023-10-08T06:28:42;101018.78;;;11.29;100.00
33506;BME280;19843;51.040;13.782;2023-10-08T06:31:10;101003.16;;;11.37;100.00
33506;BME280;19843;51.040;13.782;2023-10-08T06:33:44;101022.72;;;11.54;100.00
33506;BME280;19843;51.040;13.782;2023-10-08T06:36:11;101024.56;;;11.07;100.00
33506;BME280;19843;51.040;13.782;2023-10-08T06:38:44;101032.75;;;11.29;100.00
33506;BME280;19843;51.040;13.782;2023-10-08T06:41:17;101027.03;;;11.25;100.00
33506;BME280;19843;51.040;13.782;2023-10-08T06:44:05;101033.38;;;11.61;100.00
33506;BME280;19843;51.040;13.782;2023-10-08T06:46:32;101031.28;;;11.06;100.00
33506;BME280;19843;51.040;13.782;2023-10-08T06:49:02;101043.41;;;11.53;100.00
33506;BME280;19843;51.040;13.782;2023-10-08T06:51:32;101053.16;;;11.03;100.00
33506;BME280;19843;51.040;13.782;2023-10-08T06:54:00;101063.53;;;11.12;100.00
33506;BME280;19843;51.040;13.782;2023-10-08T06:56:31;101076.66;;;11.02;100.00
33506;BME280;19843;51.040;13.782;2023-10-08T06:58:58;101073.84;;;11.54;100.00
33506;BME280;19843;51.040;13.782;2023-10-08T07:01:27;101088.47;;;11.69;100.00
33506;BME280;19843;51.040;13.782;2023-10-08T07:04:05;101086.66;;;11.73;100.00
33506;BME280;19843;51.040;13.782;2023-10-08T07:06:38;101076.59;;;11.89;100.00
33506;BME280;19843;51.040;13.782;2023-10-08T07:09:07;101085.31;;;11.96;100.00
33506;BME280;19843;51.040;13.782;2023-10-08T07:11:50;101091.56;;;12.02;100.00
33506;BME280;19843;51.040;13.782;2023-10-08T07:14:22;101099.94;;;12.02;100.00
33506;BME280;19843;51.040;13.782;2023-10-08T07:16:54;101101.09;;;12.01;100.00
33506;BME280;19843;51.040;13.782;2023-10-08T07:19:25;101094.81;;;12.13;100.00
33506;BME280;19843;51.040;13.782;2023-10-08T07:21:59;101105.78;;;12.26;100.00
33506;BME280;19843;51.040;13.782;2023-10-08T07:24:30;101105.53;;;12.11;100.00
33506;BME280;19843;51.040;13.782;2023-10-08T07:27:02;101122.47;;;12.05;100.00
33506;BME280;19843;51.040;13.782;2023-10-08T07:29:35;101125.06;;;12.19;100.00
33506;BME280;19843;51.040;13.782;2023-10-08T07:32:03;101121.28;;;12.15;100.00
33506;BME280;19843;51.040;13.782;2023-10-08T07:34:36;101141.47;;;11.83;100.00
33506;BME280;19843;51.040;13.782;2023-10-08T07:37:04;101136.13;;;12.16;100.00
33506;BME280;19843;51.040;13.782;2023-10-08T07:39:33;101153.13;;;12.02;100.00
33506;BME280;19843;51.040;13.782;2023-10-08T07:42:12;101162.63;;;12.18;100.00
33506;BME280;19843;51.040;13.782;2023-10-08T07:44:39;101162.00;;;11.69;100.00
33506;BME280;19843;51.040;13.782;2023-10-08T07:47:07;101170.41;;;11.52;100.00
33506;BME280;19843;51.040;13.782;2023-10-08T07:49:39;101155.91;;;12.11;100.00
33506;BME280;19843;51.040;13.782;2023-10-08T07:52:10;101169.75;;;11.98;100.00
33506;BME280;19843;51.040;13.782;2023-10-08T07:54:42;101162.78;;;12.22;100.00
33506;BME280;19843;51.040;13.782;2023-10-08T07:57:12;101161.97;;;12.13;100.00
33506;BME280;19843;51.040;13.782;2023-10-08T07:59:44;101170.41;;;11.78;100.00
33506;BME280;19843;51.040;13.782;2023-10-08T08:02:15;101166.94;;;11.38;100.00
33506;BME280;19843;51.040;13.782;2023-10-08T08:04:45;101171.72;;;11.98;100.00
33506;BME280;19843;51.040;13.782;2023-10-08T08:07:17;101189.34;;;11.64;100.00
33506;BME280;19843;51.040;13.782;2023-10-08T08:09:47;101197.56;;;11.86;100.00
33506;BME280;19843;51.040;13.782;2023-10-08T08:12:20;101201.81;;;12.01;100.00
33506;BME280;19843;51.040;13.782;2023-10-08T08:14:50;101215.97;;;12.13;100.00
33506;BME280;19843;51.040;13.782;2023-10-08T08:17:18;101203.97;;;11.95;100.00
33506;BME280;19843;51.040;13.782;2023-10-08T08:19:47;101214.78;;;12.40;100.00
33506;BME280;19843;51.040;13.782;2023-10-08T08:22:17;101210.38;;;12.13;100.00
33506;BME280;19843;51.040;13.782;2023-10-08T08:24:49;101214.34;;;11.95;100.00
33506;BME280;19843;51.040;13.782;2023-10-08T08:27:25;101215.66;;;11.54;100.00
33506;BME280;19843;51.040;13.782;2023-10-08T08:30:01;101220.13;;;11.90;100.00
33506;BME280;19843;51.040;13.782;2023-10-08T08:32:38;101212.72;;;11.94;100.00
33506;BME280;19843;51.040;13.782;2023-10-08T08:35:07;101211.22;;;12.05;100.00
33506;BME280;19843;51.040;13.782;2023-10-08T08:37:35;101212.03;;;11.71;100.00
33506;BME280;19843;51.040;13.782;2023-10-08T08:40:07;101214.81;;;11.79;100.00
33506;BME280;19843;51.040;13.782;2023-10-08T08:42:37;101214.00;;;12.14;100.00
33506;BME280;19843;51.040;13.782;2023-10-08T08:45:06;101208.91;;;12.16;100.00
33506;BME280;19843;51.040;13.782;2023-10-08T08:47:38;101217.50;;;11.93;100.00
33506;BME280;19843;51.040;13.782;2023-10-08T08:50:08;101219.78;;;12.09;100.00
33506;BME280;19843;51.040;13.782;2023-10-08T08:52:36;101217.97;;;12.13;100.00
33506;BME280;19843;51.040;13.782;2023-10-08T08:55:05;101222.06;;;12.15;100.00
33506;BME280;19843;51.040;13.782;2023-10-08T08:57:43;101231.94;;;12.30;100.00
33506;BME280;19843;51.040;13.782;2023-10-08T09:00:12;101238.19;;;12.36;100.00
33506;BME280;19843;51.040;13.782;2023-10-08T09:02:41;101232.47;;;11.97;100.00
33506;BME280;19843;51.040;13.782;2023-10-08T09:05:11;101237.34;;;12.44;100.00
33506;BME280;19843;51.040;13.782;2023-10-08T09:07:55;101231.75;;;12.35;100.00
33506;BME280;19843;51.040;13.782;2023-10-08T09:10:23;101230.63;;;12.83;100.00
33506;BME280;19843;51.040;13.782;2023-10-08T09:12:57;101231.22;;;12.97;100.00
33506;BME280;19843;51.040;13.782;2023-10-08T09:15:26;101242.69;;;12.66;100.00
33506;BME280;19843;51.040;13.782;2023-10-08T09:17:54;101255.84;;;12.83;100.00
33506;BME280;19843;51.040;13.782;2023-10-08T09:20:22;101257.28;;;12.34;100.00
33506;BME280;19843;51.040;13.782;2023-10-08T09:23:05;101256.78;;;12.40;100.00
33506;BME280;19843;51.040;13.782;2023-10-08T09:25:34;101249.31;;;12.62;100.00
33506;BME280;19843;51.040;13.782;2023-10-08T09:28:03;101258.13;;;12.17;100.00
33506;BME280;19843;51.040;13.782;2023-10-08T09:30:34;101258.44;;;12.41;100.00
33506;BME280;19843;51.040;13.782;2023-10-08T09:33:05;101252.50;;;12.34;100.00
33506;BME280;19843;51.040;13.782;2023-10-08T09:35:33;101259.03;;;12.64;100.00
33506;BME280;19843;51.040;13.782;2023-10-08T09:38:02;101266.38;;;12.13;100.00
33506;BME280;19843;51.040;13.782;2023-10-08T09:40:30;101272.25;;;12.38;100.00
33506;BME280;19843;51.040;13.782;2023-10-08T09:42:59;101277.56;;;12.86;100.00
33506;BME280;19843;51.040;13.782;2023-10-08T09:45:29;101284.72;;;12.66;100.00
33506;BME280;19843;51.040;13.782;2023-10-08T09:47:58;101277.69;;;12.51;100.00
33506;BME280;19843;51.040;13.782;2023-10-08T09:50:33;101294.53;;;12.90;100.00
33506;BME280;19843;51.040;13.782;2023-10-08T09:53:07;101285.06;;;13.12;100.00
33506;BME280;19843;51.040;13.782;2023-10-08T09:55:44;101278.31;;;13.13;100.00
33506;BME280;19843;51.040;13.782;2023-10-08T09:58:15;101302.91;;;13.07;100.00
33506;BME280;19843;51.040;13.782;2023-10-08T10:00:46;101298.97;;;13.38;100.00
33506;BME280;19843;51.040;13.782;2023-10-08T10:03:15;101290.84;;;13.74;100.00
33506;BME280;19843;51.040;13.782;2023-10-08T10:05:48;101303.69;;;13.16;100.00
33506;BME280;19843;51.040;13.782;2023-10-08T10:08:17;101299.66;;;13.85;100.00
33506;BME280;19843;51.040;13.782;2023-10-08T10:10:57;101300.09;;;14.17;98.04
33506;BME280;19843;51.040;13.782;2023-10-08T10:13:27;101318.97;;;13.66;96.03
33506;BME280;19843;51.040;13.782;2023-10-08T10:15:58;101321.25;;;14.14;100.00
33506;BME280;19843;51.040;13.782;2023-10-08T10:18:29;101314.97;;;14.17;100.00
33506;BME280;19843;51.040;13.782;2023-10-08T10:20:59;101313.38;;;14.07;96.43
33506;BME280;19843;51.040;13.782;2023-10-08T10:23:35;101315.97;;;14.13;94.82
33506;BME280;19843;51.040;13.782;2023-10-08T10:26:03;101309.72;;;14.28;100.00
33506;BME280;19843;51.040;13.782;2023-10-08T10:28:31;101315.81;;;14.72;97.23
33506;BME280;19843;51.040;13.782;2023-10-08T10:31:02;101323.25;;;13.93;95.92
33506;BME280;19843;51.040;13.782;2023-10-08T10:33:30;101318.78;;;14.13;97.61
33506;BME280;19843;51.040;13.782;2023-10-08T10:36:00;101313.00;;;14.72;96.81
33506;BME280;19843;51.040;13.782;2023-10-08T10:38:29;101312.22;;;14.08;93.06
33506;BME280;19843;51.040;13.782;2023-10-08T10:40:57;101307.78;;;14.62;90.71
33506;BME280;19843;51.040;13.782;2023-10-08T10:43:25;101322.47;;;14.46;88.80
33506;BME280;19843;51.040;13.782;2023-10-08T10:46:01;101322.59;;;15.53;82.22
33506;BME280;19843;51.040;13.782;2023-10-08T10:48:50;101324.94;;;15.63;81.72
33506;BME280;19843;51.040;13.782;2023-10-08T10:51:24;101324.19;;;16.43;80.51
33506;BME280;19843;51.040;13.782;2023-10-08T10:53:52;101315.75;;;15.17;79.71
33506;BME280;19843;51.040;13.782;2023-10-08T10:56:29;101312.59;;;14.61;83.97
33506;BME280;19843;51.040;13.782;2023-10-08T10:58:58;101308.16;;;15.30;85.83
33506;BME280;19843;51.040;13.782;2023-10-08T11:01:29;101313.84;;;14.51;81.25
33506;BME280;19843;51.040;13.782;2023-10-08T11:04:10;101313.91;;;14.64;82.74
33506;BME280;19843;51.040;13.782;2023-10-08T11:06:43;101316.56;;;14.60;91.31
33506;BME280;19843;51.040;13.782;2023-10-08T11:09:11;101317.25;;;14.57;87.75
33506;BME280;19843;51.040;13.782;2023-10-08T11:11:43;101321.81;;;14.82;78.81
33506;BME280;19843;51.040;13.782;2023-10-08T11:14:12;101318.94;;;15.28;81.88
33506;BME280;19843;51.040;13.782;2023-10-08T11:16:47;101315.13;;;14.87;81.09
33506;BME280;19843;51.040;13.782;2023-10-08T11:19:15;101318.38;;;15.34;79.81
33506;BME280;19843;51.040;13.782;2023-10-08T11:21:49;101324.06;;;13.93;84.16
33506;BME280;19843;51.040;13.782;2023-10-08T11:24:29;101327.88;;;14.72;81.19
33506;BME280;19843;51.040;13.782;2023-10-08T11:27:01;101333.22;;;15.23;81.94
33506;BME280;19843;51.040;13.782;2023-10-08T11:29:46;101324.66;;;14.62;80.37
33506;BME280;19843;51.040;13.782;2023-10-08T11:32:16;101321.28;;;15.26;82.67
33506;BME280;19843;51.040;13.782;2023-10-08T11:34:45;101324.06;;;15.14;76.54
33506;BME280;19843;51.040;13.782;2023-10-08T11:37:26;101321.66;;;15.49;77.45
33506;BME280;19843;51.040;13.782;2023-10-08T11:39:54;101312.97;;;16.19;73.62
33506;BME280;19843;51.040;13.782;2023-10-08T11:42:24;101302.72;;;15.98;72.28
33506;BME280;19843;51.040;13.782;2023-10-08T11:45:10;101304.34;;;14.77;77.53
33506;BME280;19843;51.040;13.782;2023-10-08T11:47:52;101309.78;;;15.92;74.64
33506;BME280;19843;51.040;13.782;2023-10-08T11:50:24;101307.22;;;15.87;70.88
33506;BME280;19843;51.040;13.782;2023-10-08T11:52:58;101313.84;;;14.84;72.98
33506;BME280;19843;51.040;13.782;2023-10-08T11:55:30;101299.53;;;14.90;74.12
33506;BME280;19843;51.040;13.782;2023-10-08T11:58:02;101301.53;;;16.39;71.31
33506;BME280;19843;51.040;13.782;2023-10-08T12:00:37;101298.50;;;16.32;66.97
33506;BME280;19843;51.040;13.782;2023-10-08T12:03:13;101303.94;;;16.53;71.15
33506;BME280;19843;51.040;13.782;2023-10-08T12:05:45;101295.47;;;15.85;70.28
33506;BME280;19843;51.040;13.782;2023-10-08T12:08:16;101301.09;;;15.85;69.77
33506;BME280;19843;51.040;13.782;2023-10-08T12:10:44;101299.59;;;15.87;70.02
33506;BME280;19843;51.040;13.782;2023-10-08T12:13:14;101307.84;;;14.74;71.46
33506;BME280;19843;51.040;13.782;2023-10-08T12:15:45;101287.75;;;14.51;71.68
33506;BME280;19843;51.040;13.782;2023-10-08T12:18:15;101289.06;;;15.11;74.69
33506;BME280;19843;51.040;13.782;2023-10-08T12:20:51;101290.34;;;15.75;72.20
33506;BME280;19843;51.040;13.782;2023-10-08T12:23:20;101286.47;;;16.48;67.86
33506;BME280;19843;51.040;13.782;2023-10-08T12:25:52;101279.69;;;16.08;69.33
33506;BME280;19843;51.040;13.782;2023-10-08T12:28:22;101290.22;;;15.34;67.08
33506;BME280;19843;51.040;13.782;2023-10-08T12:30:50;101291.59;;;16.30;65.61
33506;BME280;19843;51.040;13.782;2023-10-08T12:33:20;101286.81;;;16.90;63.30
33506;BME280;19843;51.040;13.782;2023-10-08T12:35:50;101280.22;;;14.88;69.26
33506;BME280;19843;51.040;13.782;2023-10-08T12:38:19;101286.94;;;15.20;71.02
33506;BME280;19843;51.040;13.782;2023-10-08T12:40:48;101286.47;;;15.30;71.06
33506;BME280;19843;51.040;13.782;2023-10-08T12:43:19;101288.00;;;15.40;71.27
33506;BME280;19843;51.040;13.782;2023-10-08T12:45:47;101298.78;;;15.62;69.40
33506;BME280;19843;51.040;13.782;2023-10-08T12:48:21;101287.81;;;15.98;64.76
33506;BME280;19843;51.040;13.782;2023-10-08T12:50:50;101289.41;;;15.46;63.26
33506;BME280;19843;51.040;13.782;2023-10-08T12:53:24;101297.66;;;16.04;63.65
33506;BME280;19843;51.040;13.782;2023-10-08T12:56:00;101293.06;;;16.11;62.97
33506;BME280;19843;51.040;13.782;2023-10-08T12:58:33;101279.44;;;16.13;63.97
33506;BME280;19843;51.040;13.782;2023-10-08T13:01:07;101275.38;;;15.99;64.02